createdAt,value
2019-03-22T00:00:10.977Z,74.80
2019-03-22T00:02:37.043Z,74.90
2019-03-22T00:05:03.780Z,75.10
2019-03-22T00:07:29.917Z,75.00
2019-03-22T00:10:03.506Z,75.20
2019-03-22T00:12:29.598Z,75.20
2019-03-22T00:14:55.759Z,75.20
2019-03-22T00:17:21.857Z,75.20
2019-03-22T00:19:50.565Z,75.20
2019-03-22T00:22:16.715Z,75.30
2019-03-22T00:24:42.802Z,75.30
2019-03-22T00:27:16.412Z,75.40
2019-03-22T00:29:39.692Z,75.40
2019-03-22T00:32:05.765Z,75.50
2019-03-22T00:34:31.990Z,75.40
2019-03-22T00:36:58.090Z,75.50
2019-03-22T00:39:24.174Z,76.40
2019-03-22T00:41:50.267Z,75.70
2019-03-22T00:44:19.026Z,75.80
2019-03-22T00:46:45.989Z,75.80
2019-03-22T00:49:12.071Z,75.70
2019-03-22T00:51:38.144Z,75.90
2019-03-22T00:54:04.314Z,75.90
2019-03-22T00:56:30.414Z,75.90
2019-03-22T00:58:56.457Z,76.00
2019-03-22T01:01:31.634Z,76.00
2019-03-22T01:03:57.767Z,76.10
2019-03-22T01:06:26.672Z,76.00
2019-03-22T01:08:52.863Z,76.10
2019-03-22T01:11:18.949Z,76.00
2019-03-22T01:13:47.712Z,76.80
2019-03-22T01:16:13.793Z,76.10
2019-03-22T01:18:39.872Z,76.20
2019-03-22T01:21:06.063Z,76.20
2019-03-22T01:23:32.170Z,76.20
2019-03-22T01:26:00.892Z,76.20
2019-03-22T01:28:29.672Z,76.30
2019-03-22T01:30:58.386Z,76.30
2019-03-22T01:33:27.127Z,76.50
2019-03-22T01:35:55.936Z,76.80
2019-03-22T01:38:21.991Z,76.70
2019-03-22T01:40:48.132Z,76.70
2019-03-22T01:43:14.225Z,76.80
2019-03-22T01:45:40.417Z,76.80
2019-03-22T01:48:06.465Z,76.80
2019-03-22T01:50:32.593Z,76.90
2019-03-22T01:53:01.556Z,76.90
2019-03-22T01:55:27.634Z,77.00
2019-03-22T01:57:54.134Z,77.00
2019-03-22T02:00:20.654Z,77.00
2019-03-22T02:02:46.834Z,76.90
2019-03-22T02:05:12.955Z,76.70
2019-03-22T02:07:39.117Z,77.00
2019-03-22T02:10:06.584Z,77.00
2019-03-22T02:12:32.667Z,77.00
2019-03-22T02:14:58.717Z,77.00
2019-03-22T02:17:27.558Z,77.20
2019-03-22T02:19:53.729Z,77.30
2019-03-22T02:22:19.777Z,77.30
2019-03-22T02:24:45.875Z,77.40
2019-03-22T02:27:11.925Z,77.40
2019-03-22T02:29:38.070Z,77.60
2019-03-22T02:32:04.128Z,77.50
2019-03-22T02:34:30.197Z,77.50
2019-03-22T02:36:59.226Z,77.50
2019-03-22T02:39:28.042Z,77.40
2019-03-22T02:41:54.206Z,77.50
2019-03-22T02:44:20.278Z,77.50
2019-03-22T02:46:46.348Z,77.50
2019-03-22T02:49:15.100Z,77.20
2019-03-22T02:51:41.169Z,77.80
2019-03-22T02:54:07.211Z,77.70
2019-03-22T02:56:33.280Z,77.80
2019-03-22T02:58:59.574Z,77.90
2019-03-22T03:01:25.971Z,77.90
2019-03-22T03:03:52.142Z,78.00
2019-03-22T03:06:18.225Z,78.00
2019-03-22T03:08:44.303Z,78.00
2019-03-22T03:11:13.036Z,78.10
2019-03-22T03:13:39.109Z,78.20
2019-03-22T03:16:05.372Z,78.20
2019-03-22T03:18:31.422Z,78.20
2019-03-22T03:20:57.482Z,78.10
2019-03-22T03:23:26.242Z,78.00
2019-03-22T03:25:52.696Z,79.00
2019-03-22T03:28:18.750Z,78.20
2019-03-22T03:30:44.948Z,78.30
2019-03-22T03:33:11.058Z,78.40
2019-03-22T03:35:46.339Z,78.20
2019-03-22T03:38:12.403Z,78.20
2019-03-22T03:40:38.444Z,78.30
2019-03-22T03:43:04.604Z,78.40
2019-03-22T03:45:31.595Z,78.50
2019-03-22T03:47:58.406Z,78.70
2019-03-22T03:50:24.460Z,78.60
2019-03-22T03:52:50.531Z,78.70
2019-03-22T03:55:16.641Z,78.40
2019-03-22T03:57:42.847Z,78.40
2019-03-22T04:00:11.650Z,78.50
2019-03-22T04:02:40.320Z,78.40
2019-03-22T04:05:09.069Z,78.40
2019-03-22T04:07:37.863Z,78.50
2019-03-22T04:10:05.817Z,78.70
2019-03-22T04:12:31.928Z,78.80
2019-03-22T04:14:57.969Z,78.30
2019-03-22T04:17:24.044Z,78.90
2019-03-22T04:19:50.134Z,78.90
2019-03-22T04:22:16.226Z,78.90
2019-03-22T04:24:44.982Z,79.00
2019-03-22T04:27:11.055Z,79.00
2019-03-22T04:29:43.287Z,79.10
2019-03-22T04:32:09.375Z,79.00
2019-03-22T04:34:35.455Z,79.00
2019-03-22T04:37:01.520Z,79.00
2019-03-22T04:39:27.575Z,79.10
2019-03-22T04:41:56.456Z,78.90
2019-03-22T04:44:22.512Z,79.00
2019-03-22T04:46:49.016Z,79.00
2019-03-22T04:49:19.167Z,79.20
2019-03-22T04:51:45.533Z,79.20
2019-03-22T04:54:24.573Z,79.10
2019-03-22T04:56:50.836Z,79.10
2019-03-22T04:59:19.316Z,79.10
2019-03-22T05:01:47.104Z,79.20
2019-03-22T05:04:13.758Z,79.10
2019-03-22T05:06:40.528Z,79.30
2019-03-22T05:09:08.025Z,79.30
2019-03-22T05:11:34.090Z,79.10
2019-03-22T05:14:00.690Z,79.30
2019-03-22T05:16:27.505Z,80.00
2019-03-22T05:18:54.487Z,79.30
2019-03-22T05:21:24.326Z,79.40
2019-03-22T05:23:52.276Z,79.50
2019-03-22T05:26:18.561Z,79.50
2019-03-22T05:28:44.738Z,79.50
2019-03-22T05:31:12.706Z,79.60
2019-03-22T05:33:38.770Z,79.60
2019-03-22T05:36:07.903Z,79.60
2019-03-22T05:38:34.020Z,79.70
2019-03-22T05:41:00.123Z,79.70
2019-03-22T05:43:26.194Z,79.80
2019-03-22T05:45:52.420Z,79.80
2019-03-22T05:48:18.515Z,79.90
2019-03-22T05:50:53.697Z,79.90
2019-03-22T05:53:19.915Z,79.90
2019-03-22T05:55:52.131Z,80.50
2019-03-22T05:58:18.236Z,80.50
2019-03-22T06:00:53.507Z,80.00
2019-03-22T06:03:19.595Z,79.90
2019-03-22T06:05:45.680Z,80.00
2019-03-22T06:08:11.851Z,80.00
2019-03-22T06:10:56.170Z,80.00
2019-03-22T06:13:24.178Z,80.00
2019-03-22T06:15:53.053Z,79.80
2019-03-22T06:18:19.162Z,79.80
2019-03-22T06:20:45.277Z,80.00
2019-03-22T06:23:11.477Z,79.90
2019-03-22T06:25:37.598Z,80.00
2019-03-22T06:28:03.828Z,80.00
2019-03-22T06:30:30.080Z,80.10
2019-03-22T06:32:56.280Z,80.10
2019-03-22T06:35:22.499Z,80.20
2019-03-22T06:37:48.671Z,80.30
2019-03-22T06:40:17.316Z,80.20
2019-03-22T06:42:58.494Z,80.20
2019-03-22T06:45:24.629Z,80.30
2019-03-22T06:47:56.905Z,80.50
2019-03-22T06:50:22.978Z,80.70
2019-03-22T06:52:51.886Z,80.30
2019-03-22T06:55:17.076Z,80.80
2019-03-22T06:58:01.842Z,80.50
2019-03-22T07:00:30.529Z,80.60
2019-03-22T07:03:15.007Z,80.70
2019-03-22T07:05:41.051Z,80.60
2019-03-22T07:08:10.310Z,80.60
2019-03-22T07:10:55.100Z,80.60
2019-03-22T07:13:21.151Z,80.70
2019-03-22T07:15:47.196Z,80.80
2019-03-22T07:18:31.946Z,80.60
2019-03-22T07:20:58.046Z,80.50
2019-03-22T07:23:24.102Z,80.30
2019-03-22T07:25:50.150Z,80.40
2019-03-22T07:28:34.891Z,80.20
2019-03-22T07:31:00.955Z,80.20
2019-03-22T07:33:27.095Z,80.30
2019-03-22T07:35:53.190Z,80.30
2019-03-22T07:38:19.281Z,80.20
2019-03-22T07:40:45.361Z,80.20
2019-03-22T07:43:11.595Z,80.20
2019-03-22T07:45:37.813Z,80.30
2019-03-22T07:48:03.971Z,80.40
2019-03-22T07:50:48.847Z,80.50
2019-03-22T07:53:14.890Z,80.70
2019-03-22T07:55:41.077Z,80.60
2019-03-22T07:58:09.743Z,80.80
2019-03-22T08:00:53.906Z,80.70
2019-03-22T08:03:20.062Z,80.60
2019-03-22T08:05:50.720Z,80.30
2019-03-22T08:08:14.223Z,80.30
2019-03-22T08:10:58.670Z,80.20
2019-03-22T08:13:24.822Z,79.80
2019-03-22T08:15:50.876Z,79.80
2019-03-22T08:18:16.916Z,79.90
2019-03-22T08:20:55.359Z,80.40
2019-03-22T08:23:21.917Z,80.10
2019-03-22T08:25:48.207Z,80.00
2019-03-22T08:28:26.652Z,79.60
2019-03-22T08:30:55.374Z,79.60
2019-03-22T08:33:21.412Z,79.30
2019-03-22T08:35:47.668Z,79.30
2019-03-22T08:38:13.828Z,79.20
2019-03-22T08:40:39.899Z,78.90
2019-03-22T08:43:06.064Z,78.50
2019-03-22T08:45:32.132Z,78.90
2019-03-22T08:48:13.483Z,78.60
2019-03-22T08:50:39.620Z,78.50
2019-03-22T08:53:24.369Z,78.70
2019-03-22T08:55:53.240Z,78.70
2019-03-22T08:58:19.374Z,78.80
2019-03-22T09:00:56.776Z,78.70
2019-03-22T09:03:13.479Z,78.40
2019-03-22T09:05:39.580Z,78.60
2019-03-22T09:08:17.828Z,78.60
2019-03-22T09:10:43.930Z,78.70
2019-03-22T09:13:16.226Z,78.50
2019-03-22T09:15:42.350Z,78.20
2019-03-22T09:18:08.412Z,78.20
2019-03-22T09:20:34.582Z,78.30
2019-03-22T09:23:00.679Z,78.50
2019-03-22T09:25:30.035Z,78.40
2019-03-22T09:27:56.161Z,78.50
2019-03-22T09:30:22.224Z,78.50
2019-03-22T09:33:00.497Z,78.40
2019-03-22T09:35:26.764Z,78.50
2019-03-22T09:37:52.798Z,79.10
2019-03-22T09:40:34.199Z,78.30
2019-03-22T09:43:00.350Z,78.30
2019-03-22T09:45:26.523Z,78.20
2019-03-22T09:47:52.655Z,78.40
2019-03-22T09:50:18.708Z,78.00
2019-03-22T09:52:44.773Z,78.20
2019-03-22T09:55:13.827Z,78.70
2019-03-22T09:57:41.675Z,79.70
2019-03-22T10:00:12.280Z,80.30
2019-03-22T10:02:57.270Z,80.00
2019-03-22T10:05:23.326Z,79.70
2019-03-22T10:07:50.179Z,78.60
2019-03-22T10:10:31.618Z,79.30
2019-03-22T10:12:57.793Z,80.60
2019-03-22T10:15:23.929Z,78.90
2019-03-22T10:17:50.251Z,75.40
2019-03-22T10:20:16.410Z,70.00
2019-03-22T10:22:45.740Z,67.80
2019-03-22T10:25:11.796Z,64.30
2019-03-22T10:27:44.152Z,60.90
2019-03-22T10:30:11.397Z,57.80
2019-03-22T10:32:37.575Z,56.70
2019-03-22T10:35:03.837Z,55.50
2019-03-22T10:37:32.780Z,55.50
2019-03-22T10:39:58.853Z,56.00
2019-03-22T10:42:25.006Z,56.80
2019-03-22T10:45:09.272Z,58.30
2019-03-22T10:47:35.432Z,58.50
2019-03-22T10:50:08.372Z,59.90
2019-03-22T10:52:34.685Z,62.50
2019-03-22T10:55:23.302Z,64.00
2019-03-22T10:57:36.068Z,64.20
2019-03-22T11:00:17.374Z,63.40
2019-03-22T11:02:46.167Z,58.40
2019-03-22T11:05:12.674Z,55.20
2019-03-22T11:07:47.887Z,51.80
2019-03-22T11:10:32.552Z,49.80
2019-03-22T11:12:58.596Z,48.60
2019-03-22T11:15:24.683Z,47.50
2019-03-22T11:17:50.733Z,46.30
2019-03-22T11:20:16.901Z,44.80
2019-03-22T11:22:43.016Z,42.80
2019-03-22T11:25:09.288Z,42.20
2019-03-22T11:27:35.402Z,41.50
2019-03-22T11:30:08.883Z,40.10
2019-03-22T11:32:35.127Z,39.10
2019-03-22T11:35:13.467Z,38.40
2019-03-22T11:37:39.549Z,39.20
2019-03-22T11:40:16.258Z,41.10
2019-03-22T11:42:48.503Z,44.20
2019-03-22T11:45:16.403Z,45.20
2019-03-22T11:47:57.891Z,46.40
2019-03-22T11:50:23.992Z,44.70
2019-03-22T11:52:53.273Z,43.60
2019-03-22T11:55:19.429Z,42.30
2019-03-22T11:58:03.892Z,41.90
2019-03-22T12:00:32.707Z,42.10
2019-03-22T12:03:01.538Z,42.30
2019-03-22T12:05:27.598Z,42.10
2019-03-22T12:07:53.737Z,42.50
2019-03-22T12:10:22.526Z,43.30
2019-03-22T12:12:48.931Z,43.70
2019-03-22T12:15:19.061Z,43.80
2019-03-22T12:17:48.469Z,43.60
2019-03-22T12:20:26.800Z,43.40
2019-03-22T12:22:55.554Z,43.70
2019-03-22T12:25:22.879Z,44.10
2019-03-22T12:28:07.501Z,44.50
2019-03-22T12:30:33.822Z,45.00
2019-03-22T12:33:00.175Z,44.80
2019-03-22T12:35:26.424Z,45.20
2019-03-22T12:37:57.633Z,44.90
2019-03-22T12:40:23.647Z,45.20
2019-03-22T12:42:50.194Z,45.20
2019-03-22T12:45:30.269Z,45.30
2019-03-22T12:48:05.885Z,45.40
2019-03-22T12:50:32.129Z,45.20
2019-03-22T12:52:58.311Z,45.10
2019-03-22T12:55:24.686Z,44.10
2019-03-22T12:57:51.169Z,44.20
2019-03-22T13:00:25.280Z,44.60
2019-03-22T13:02:54.289Z,45.10
2019-03-22T13:05:21.177Z,44.90
2019-03-22T13:07:47.698Z,44.70
2019-03-22T13:10:25.273Z,44.90
2019-03-22T13:12:51.517Z,44.70
2019-03-22T13:15:17.915Z,44.90
2019-03-22T13:17:44.279Z,44.90
2019-03-22T13:20:12.233Z,45.90
2019-03-22T13:22:38.483Z,46.30
2019-03-22T13:25:07.169Z,44.60
2019-03-22T13:27:39.509Z,43.80
2019-03-22T13:30:24.185Z,43.80
2019-03-22T13:32:52.314Z,43.30
2019-03-22T13:35:18.618Z,40.90
2019-03-22T13:37:44.852Z,39.80
2019-03-22T13:40:11.139Z,39.00
2019-03-22T13:42:37.318Z,37.60
2019-03-22T13:45:05.828Z,36.60
2019-03-22T13:47:32.028Z,35.40
2019-03-22T13:49:58.356Z,35.40
2019-03-22T13:52:24.556Z,33.50
2019-03-22T13:54:50.906Z,33.00
2019-03-22T13:57:17.110Z,31.90
2019-03-22T13:59:43.329Z,32.30
2019-03-22T14:02:09.647Z,32.40
2019-03-22T14:04:35.846Z,31.70
2019-03-22T14:07:02.045Z,30.40
2019-03-22T14:09:28.503Z,30.30
2019-03-22T14:11:54.720Z,30.30
2019-03-22T14:14:23.569Z,31.10
2019-03-22T14:16:49.819Z,31.20
2019-03-22T14:19:16.250Z,31.40
2019-03-22T14:21:45.107Z,30.60
2019-03-22T14:24:11.309Z,30.40
2019-03-22T14:26:37.563Z,29.60
2019-03-22T14:29:03.741Z,29.80
2019-03-22T14:31:30.030Z,30.20
2019-03-22T14:33:56.389Z,30.20
2019-03-22T14:36:41.127Z,29.40
2019-03-22T14:39:07.564Z,29.30
2019-03-22T14:41:33.876Z,29.40
2019-03-22T14:44:00.142Z,29.60
2019-03-22T14:46:26.445Z,29.30
2019-03-22T14:48:52.657Z,29.00
2019-03-22T14:51:18.878Z,28.30
2019-03-22T14:53:45.089Z,28.10
2019-03-22T14:56:11.346Z,28.30
2019-03-22T14:58:37.693Z,27.50
2019-03-22T15:01:03.920Z,27.30
2019-03-22T15:03:30.307Z,27.70
2019-03-22T15:05:59.043Z,28.10
2019-03-22T15:08:25.251Z,29.10
2019-03-22T15:10:51.819Z,29.20
2019-03-22T15:13:19.462Z,29.80
2019-03-22T15:15:47.577Z,30.20
2019-03-22T15:18:31.064Z,30.30
2019-03-22T15:21:05.257Z,30.80
2019-03-22T15:23:49.719Z,31.60
2019-03-22T15:26:39.062Z,31.90
2019-03-22T15:29:10.022Z,32.10
2019-03-22T15:31:40.916Z,32.30
2019-03-22T15:34:17.229Z,32.70
2019-03-22T15:36:54.131Z,33.20
2019-03-22T15:39:31.030Z,33.00
2019-03-22T15:41:57.434Z,32.80
2019-03-22T15:46:50.077Z,33.80
2019-03-22T15:49:16.353Z,33.80
2019-03-22T15:51:42.561Z,34.10
2019-03-22T15:54:08.804Z,34.40
2019-03-22T15:56:38.014Z,34.70
2019-03-22T15:59:06.727Z,35.00
2019-03-22T16:01:35.686Z,35.10
2019-03-22T16:04:02.634Z,35.30
2019-03-22T16:06:28.916Z,35.30
2019-03-22T16:08:55.103Z,35.50
2019-03-22T16:11:21.278Z,35.60
2019-03-22T16:14:06.421Z,36.50
2019-03-22T16:16:35.137Z,36.00
2019-03-22T16:19:01.342Z,36.30
2019-03-22T16:21:27.614Z,36.20
2019-03-22T16:23:53.886Z,36.30
2019-03-22T16:26:32.194Z,36.80
2019-03-22T16:28:58.521Z,36.70
2019-03-22T16:31:24.752Z,37.20
2019-03-22T16:33:54.852Z,37.20
2019-03-22T16:36:19.113Z,37.80
2019-03-22T16:38:45.355Z,38.10
2019-03-22T16:41:14.093Z,38.50
2019-03-22T16:43:40.342Z,38.60
2019-03-22T16:46:06.602Z,39.00
2019-03-22T16:48:32.920Z,39.20
2019-03-22T16:50:59.095Z,39.50
2019-03-22T16:53:28.137Z,39.70
2019-03-22T16:55:57.222Z,40.40
2019-03-22T16:58:23.632Z,40.60
2019-03-22T17:00:56.329Z,40.60
2019-03-22T17:03:22.585Z,41.20
2019-03-22T17:05:48.778Z,41.70
2019-03-22T17:08:14.946Z,42.00
2019-03-22T17:10:41.142Z,42.20
2019-03-22T17:13:07.328Z,42.80
2019-03-22T17:15:33.511Z,43.30
2019-03-22T17:17:59.961Z,43.70
2019-03-22T17:20:26.298Z,43.80
2019-03-22T17:22:52.505Z,44.50
2019-03-22T17:25:18.701Z,45.00
2019-03-22T17:27:44.870Z,45.40
2019-03-22T17:30:11.986Z,45.80
2019-03-22T17:32:38.314Z,46.10
2019-03-22T17:35:05.797Z,46.50
2019-03-22T17:37:31.971Z,46.90
2019-03-22T17:39:58.212Z,47.40
2019-03-22T17:42:24.406Z,47.70
2019-03-22T17:44:59.760Z,48.00
2019-03-22T17:47:26.079Z,48.30
2019-03-22T17:49:52.266Z,48.60
2019-03-22T17:58:12.496Z,49.60
2019-03-22T18:00:41.437Z,50.00
2019-03-22T18:03:10.489Z,50.10
2019-03-22T18:05:36.676Z,50.80
2019-03-22T18:08:02.981Z,50.50
2019-03-22T18:10:32.047Z,50.60
2019-03-22T18:12:58.274Z,50.80
2019-03-22T18:15:24.510Z,51.00
2019-03-22T18:18:00.137Z,51.10
2019-03-22T18:20:26.368Z,51.90
2019-03-22T18:22:52.546Z,51.60
2019-03-22T18:25:18.735Z,51.90
2019-03-22T18:27:44.906Z,52.00
2019-03-22T18:30:17.191Z,52.00
2019-03-22T18:32:43.483Z,52.30
2019-03-22T18:35:10.213Z,52.60
2019-03-22T18:37:39.199Z,52.80
2019-03-22T18:40:08.697Z,53.50
2019-03-22T18:42:34.885Z,52.90
2019-03-22T18:45:01.790Z,53.10
2019-03-22T18:47:27.966Z,53.30
2019-03-22T18:49:54.165Z,53.60
2019-03-22T18:52:20.354Z,53.80
2019-03-22T18:54:46.542Z,54.00
2019-03-22T18:57:12.768Z,54.20
2019-03-22T18:59:38.971Z,54.30
2019-03-22T19:02:05.366Z,54.40
2019-03-22T19:04:43.908Z,54.70
2019-03-22T19:07:23.981Z,54.80
2019-03-22T19:09:52.835Z,54.90
2019-03-22T19:12:19.025Z,55.20
2019-03-22T19:14:45.205Z,55.20
2019-03-22T19:17:11.454Z,55.30
2019-03-22T19:19:37.668Z,55.60
2019-03-22T19:22:03.873Z,55.70
2019-03-22T19:24:30.071Z,55.70
2019-03-22T19:26:56.274Z,56.00
2019-03-22T19:29:22.534Z,56.00
2019-03-22T19:31:48.708Z,56.10
2019-03-22T19:34:14.952Z,56.30
2019-03-22T19:36:43.980Z,56.60
2019-03-22T19:39:10.181Z,56.70
2019-03-22T19:41:36.397Z,56.70
2019-03-22T19:44:02.998Z,57.00
2019-03-22T19:46:32.253Z,57.30
2019-03-22T19:49:01.039Z,57.30
2019-03-22T19:51:29.970Z,57.70
2019-03-22T19:53:56.148Z,57.70
2019-03-22T19:56:22.333Z,57.70
2019-03-22T19:58:48.528Z,57.70
2019-03-22T20:01:33.382Z,57.90
2019-03-22T20:04:02.201Z,57.90
2019-03-22T20:06:28.410Z,58.10
2019-03-22T20:08:54.577Z,58.20
2019-03-22T20:11:20.786Z,58.40
2019-03-22T20:13:47.056Z,58.40
2019-03-22T20:16:15.855Z,58.60
2019-03-22T20:18:42.048Z,58.70
2019-03-22T20:21:08.325Z,58.80
2019-03-22T20:23:34.524Z,58.50
2019-03-22T20:26:00.785Z,59.00
2019-03-22T20:28:29.745Z,59.20
2019-03-22T20:30:55.999Z,59.20
2019-03-22T20:33:22.252Z,59.30
2019-03-22T20:35:51.153Z,59.30
2019-03-22T20:38:17.298Z,59.60
2019-03-22T20:40:43.572Z,59.50
2019-03-22T20:43:09.802Z,59.70
2019-03-22T20:45:36.038Z,59.70
2019-03-22T20:48:02.201Z,60.00
2019-03-22T20:50:35.789Z,59.90
2019-03-22T20:52:56.742Z,60.20
2019-03-22T20:55:22.930Z,60.10
2019-03-22T20:57:49.319Z,60.30
2019-03-22T21:00:16.195Z,60.30
2019-03-22T21:02:45.054Z,60.30
2019-03-22T21:05:11.373Z,60.60
2019-03-22T21:07:37.764Z,60.50
2019-03-22T21:10:08.425Z,60.60
2019-03-22T21:12:34.700Z,60.50
2019-03-22T21:15:00.894Z,60.60
2019-03-22T21:17:27.059Z,60.80
2019-03-22T21:19:59.095Z,60.90
2019-03-22T21:22:25.284Z,60.90
2019-03-22T21:24:51.571Z,61.10
2019-03-22T21:27:20.389Z,61.20
2019-03-22T21:29:46.570Z,62.00
2019-03-22T21:32:12.809Z,61.40
2019-03-22T21:34:44.010Z,61.40
2019-03-22T21:37:09.652Z,61.50
2019-03-22T21:39:35.838Z,61.60
2019-03-22T21:42:02.032Z,62.00
2019-03-22T21:44:28.280Z,62.00
2019-03-22T21:46:57.383Z,61.90
2019-03-22T21:49:23.608Z,62.20
2019-03-22T21:52:02.144Z,62.20
2019-03-22T21:54:31.017Z,62.50
2019-03-22T21:57:15.710Z,62.50
2019-03-22T21:59:44.393Z,62.50
2019-03-22T22:02:10.643Z,62.50
2019-03-22T22:04:36.862Z,62.40
2019-03-22T22:07:15.178Z,62.50
2019-03-22T22:09:43.966Z,62.50
2019-03-22T22:12:10.153Z,62.80
2019-03-22T22:14:48.657Z,62.70
2019-03-22T22:17:14.878Z,62.80
2019-03-22T22:19:41.040Z,63.00
2019-03-22T22:22:07.290Z,62.80
2019-03-22T22:24:33.524Z,62.80
2019-03-22T22:26:59.751Z,63.00
2019-03-22T22:29:26.013Z,63.00
2019-03-22T22:31:52.313Z,63.10
2019-03-22T22:34:18.481Z,63.30
2019-03-22T22:36:44.657Z,63.20
2019-03-22T22:39:10.809Z,63.20
2019-03-22T22:41:36.990Z,63.20
2019-03-22T22:44:03.156Z,63.30
2019-03-22T22:46:29.358Z,63.40
2019-03-22T22:48:55.552Z,63.30
2019-03-22T22:51:21.809Z,63.40
2019-03-22T22:53:47.990Z,63.30
2019-03-22T22:56:14.138Z,63.50
2019-03-22T22:58:40.310Z,63.40
2019-03-22T23:01:06.511Z,63.60
2019-03-22T23:03:32.690Z,63.80
2019-03-22T23:06:08.843Z,63.80
2019-03-22T23:08:27.099Z,63.70
2019-03-22T23:10:53.288Z,63.70
2019-03-22T23:13:19.460Z,63.90
2019-03-22T23:15:45.650Z,63.90
2019-03-22T23:18:11.876Z,64.50
2019-03-22T23:20:38.130Z,64.50
2019-03-22T23:23:04.636Z,64.50
2019-03-22T23:25:30.823Z,65.00
2019-03-22T23:27:57.005Z,65.10
2019-03-22T23:30:23.215Z,65.90
2019-03-22T23:32:49.499Z,65.00
2019-03-22T23:35:18.261Z,64.90
2019-03-22T23:37:44.451Z,65.00
2019-03-22T23:40:10.922Z,65.10
2019-03-22T23:42:37.124Z,65.10
2019-03-22T23:45:05.498Z,65.20
2019-03-22T23:47:31.762Z,65.40
2019-03-22T23:50:16.414Z,65.30
2019-03-22T23:52:42.747Z,65.50
2019-03-22T23:55:08.943Z,65.70
2019-03-22T23:57:35.190Z,65.80
